Time;durP1;ratioP1;P1;durP2;ratioP2;P2;SDS_P1;SDS_P2;PMS_P1;PMS_P2;Temp;Humidity;BMP_temperature;BMP_pressure;BME280_temperature;BME280_humidity;BME280_pressure;Samples;Min_cycle;Max_cycle;Signal;HPM_P1;HPM_P2
2022/10/03 00:02:05;;;;;;;5.77;2.40;;;;;;;;;;5007993;28;20186;-72
2022/10/03 00:04:46;;;;;;;8.80;3.03;;;;;;;;;;5028415;28;20170;-72
2022/10/03 00:07:22;;;;;;;8.43;3.23;;;;;;;;;;5003271;28;20241;-72
2022/10/03 00:10:02;;;;;;;5.43;2.70;;;;;;;;;;5008649;28;20182;-72
2022/10/03 00:12:37;;;;;;;7.93;2.63;;;;;;;;;;5007452;28;20213;-73
2022/10/03 00:15:04;;;;;;;4.50;2.07;;;;;;;;;;5030294;28;20178;-73
2022/10/03 00:17:47;;;;;;;8.00;2.80;;;;;;;;;;5026980;28;20206;-73
2022/10/03 00:20:15;;;;;;;9.30;2.60;;;;;;;;;;5023040;28;20182;-72
2022/10/03 00:22:40;;;;;;;11.30;2.90;;;;;;;;;;5024425;28;20668;-72
2022/10/03 00:25:05;;;;;;;4.33;2.40;;;;;;;;;;5029324;28;20186;-73
2022/10/03 00:27:49;;;;;;;8.03;2.57;;;;;;;;;;5024307;28;20218;-72
2022/10/03 00:30:17;;;;;;;6.97;3.50;;;;;;;;;;5018461;28;20258;-72
2022/10/03 00:32:54;;;;;;;12.20;2.77;;;;;;;;;;5016020;28;20283;-74
2022/10/03 00:35:22;;;;;;;11.07;2.90;;;;;;;;;;5021923;28;20664;-72
2022/10/03 00:37:59;;;;;;;6.43;2.93;;;;;;;;;;5009106;28;20202;-73
2022/10/03 00:40:27;;;;;;;8.30;2.43;;;;;;;;;;5027669;28;20655;-74
2022/10/03 00:43:25;;;;;;;5.80;3.10;;;;;;;;;;5018494;28;20663;-72
2022/10/03 00:45:50;;;;;;;8.67;2.80;;;;;;;;;;4966980;28;20182;-72
2022/10/03 00:48:34;;;;;;;3.53;1.90;;;;;;;;;;5011025;28;20194;-72
2022/10/03 00:51:11;;;;;;;10.30;3.00;;;;;;;;;;5025265;28;20868;-72
2022/10/03 00:54:00;;;;;;;5.27;2.53;;;;;;;;;;5026503;28;20205;-72
2022/10/03 00:56:25;;;;;;;7.43;2.67;;;;;;;;;;5017265;28;20282;-73
2022/10/03 00:59:02;;;;;;;8.93;3.27;;;;;;;;;;5011416;28;20289;-72
2022/10/03 01:01:27;;;;;;;4.90;2.70;;;;;;;;;;5020796;28;20752;-72
2022/10/03 01:03:52;;;;;;;7.70;3.00;;;;;;;;;;5027133;28;20282;-72
2022/10/03 01:06:18;;;;;;;8.17;2.63;;;;;;;;;;5026567;28;20182;-73
2022/10/03 01:09:05;;;;;;;7.83;2.70;;;;;;;;;;5011675;28;20261;-73
2022/10/03 01:11:49;;;;;;;11.47;2.63;;;;;;;;;;5024167;28;20179;-73
2022/10/03 01:14:23;;;;;;;3.70;2.57;;;;;;;;;;5015392;28;20175;-73
2022/10/03 01:16:51;;;;;;;4.80;2.57;;;;;;;;;;5008882;28;20217;-72
2022/10/03 01:19:36;;;;;;;3.43;2.20;;;;;;;;;;5022973;28;20223;-72
2022/10/03 01:22:37;;;;;;;4.47;2.27;;;;;;;;;;5017534;28;20175;-73
2022/10/03 01:25:25;;;;;;;5.63;2.00;;;;;;;;;;4907278;29;20193;-72
2022/10/03 01:30:48;;;;;;;5.13;2.37;;;;;;;;;;5025308;28;20217;-72
2022/10/03 01:33:22;;;;;;;5.93;2.07;;;;;;;;;;5019603;28;20943;-72
2022/10/03 01:35:54;;;;;;;5.83;2.00;;;;;;;;;;5022835;28;20235;-73
2022/10/03 01:38:23;;;;;;;6.80;1.90;;;;;;;;;;5022627;28;20245;-72
2022/10/03 01:41:02;;;;;;;4.23;2.17;;;;;;;;;;5011395;28;20609;-73
2022/10/03 01:43:33;;;;;;;5.67;2.30;;;;;;;;;;5018840;28;20558;-73
2022/10/03 01:46:20;;;;;;;7.33;2.20;;;;;;;;;;5021680;28;20178;-72
2022/10/03 01:49:00;;;;;;;6.10;2.10;;;;;;;;;;5021787;28;20554;-73
2022/10/03 01:51:32;;;;;;;8.57;2.27;;;;;;;;;;5024441;28;20709;-73
2022/10/03 01:54:20;;;;;;;7.83;2.90;;;;;;;;;;5004109;28;20292;-73
2022/10/03 01:56:58;;;;;;;8.93;2.43;;;;;;;;;;5018703;28;20209;-72
2022/10/03 01:59:42;;;;;;;6.13;2.53;;;;;;;;;;5025326;28;20264;-73
2022/10/03 02:02:26;;;;;;;5.87;2.57;;;;;;;;;;5006032;28;20730;-73
2022/10/03 02:05:02;;;;;;;5.27;2.13;;;;;;;;;;5021402;28;20194;-72
2022/10/03 02:07:46;;;;;;;10.50;2.40;;;;;;;;;;5019460;28;20273;-73
2022/10/03 02:10:30;;;;;;;6.80;2.40;;;;;;;;;;5020822;28;20286;-73
2022/10/03 02:12:59;;;;;;;5.37;2.30;;;;;;;;;;5017814;28;20198;-73
2022/10/03 02:15:29;;;;;;;6.13;2.17;;;;;;;;;;5028369;28;20190;-73
2022/10/03 02:18:11;;;;;;;3.03;2.03;;;;;;;;;;5026000;28;20202;-73
2022/10/03 02:20:39;;;;;;;5.50;1.83;;;;;;;;;;5023288;28;20278;-72
2022/10/03 02:23:21;;;;;;;4.77;2.00;;;;;;;;;;5020074;28;20198;-72
2022/10/03 02:26:01;;;;;;;4.60;2.50;;;;;;;;;;5016905;28;20186;-72
2022/10/03 02:28:30;;;;;;;3.03;1.80;;;;;;;;;;5017305;28;20183;-73
2022/10/03 02:31:13;;;;;;;7.00;3.23;;;;;;;;;;5016386;28;20214;-72
2022/10/03 02:33:43;;;;;;;7.57;2.20;;;;;;;;;;5022080;28;20683;-72
2022/10/03 02:36:19;;;;;;;9.33;2.40;;;;;;;;;;5020679;28;20277;-72
2022/10/03 02:38:58;;;;;;;6.40;1.83;;;;;;;;;;5021121;28;20213;-72
2022/10/03 02:41:36;;;;;;;3.20;1.90;;;;;;;;;;5001145;28;20191;-72
2022/10/03 02:44:07;;;;;;;4.80;2.30;;;;;;;;;;5019041;28;20253;-73
2022/10/03 02:46:35;;;;;;;7.30;3.13;;;;;;;;;;5016015;28;20710;-74
2022/10/03 02:49:00;;;;;;;2.53;1.57;;;;;;;;;;5023143;28;20262;-72
2022/10/03 02:51:38;;;;;;;4.37;2.13;;;;;;;;;;5024394;28;20285;-72
2022/10/03 02:54:16;;;;;;;2.87;1.60;;;;;;;;;;5021760;28;20189;-72
2022/10/03 02:56:57;;;;;;;4.30;1.50;;;;;;;;;;5019015;28;20588;-72
2022/10/03 02:59:34;;;;;;;3.43;1.70;;;;;;;;;;5019869;28;20265;-72
2022/10/03 03:02:10;;;;;;;3.40;1.50;;;;;;;;;;5020668;28;20197;-72
2022/10/03 03:04:39;;;;;;;3.20;2.10;;;;;;;;;;5015226;28;20197;-72
2022/10/03 03:07:18;;;;;;;2.93;1.17;;;;;;;;;;5022446;28;20175;-72
2022/10/03 03:10:04;;;;;;;2.50;1.30;;;;;;;;;;5023720;28;20552;-72
2022/10/03 03:12:47;;;;;;;2.00;1.20;;;;;;;;;;5022411;28;20217;-72
2022/10/03 03:15:43;;;;;;;5.37;1.70;;;;;;;;;;5025821;28;22402;-72
2022/10/03 03:18:23;;;;;;;2.77;1.50;;;;;;;;;;4930543;28;20726;-73
2022/10/03 03:21:07;;;;;;;5.57;1.57;;;;;;;;;;5021126;28;20175;-71
2022/10/03 03:23:41;;;;;;;3.50;1.33;;;;;;;;;;5025895;28;20202;-72
2022/10/03 03:26:14;;;;;;;4.47;1.50;;;;;;;;;;5022615;28;20258;-73
2022/10/03 03:28:54;;;;;;;3.10;1.47;;;;;;;;;;5016555;28;20182;-73
2022/10/03 03:31:29;;;;;;;10.20;2.03;;;;;;;;;;5016296;28;20185;-72
2022/10/03 03:34:08;;;;;;;2.60;1.50;;;;;;;;;;5021628;28;20216;-72
2022/10/03 03:36:33;;;;;;;3.40;1.70;;;;;;;;;;5015878;28;20190;-72
2022/10/03 03:39:10;;;;;;;4.50;1.80;;;;;;;;;;5021472;28;20248;-73
2022/10/03 03:41:44;;;;;;;3.93;1.50;;;;;;;;;;5016566;28;20178;-73
2022/10/03 03:44:30;;;;;;;4.60;1.83;;;;;;;;;;4998960;28;20256;-73
2022/10/03 03:47:11;;;;;;;4.60;1.63;;;;;;;;;;5013603;28;20182;-73
2022/10/03 03:49:36;;;;;;;3.57;1.47;;;;;;;;;;5020397;28;20174;-73
2022/10/03 03:52:04;;;;;;;3.67;1.67;;;;;;;;;;5016844;28;20575;-73
2022/10/03 03:54:54;;;;;;;3.33;1.53;;;;;;;;;;5016849;28;20182;-73
2022/10/03 03:57:20;;;;;;;6.80;1.60;;;;;;;;;;5002281;28;20186;-73
2022/10/03 03:59:52;;;;;;;2.83;1.67;;;;;;;;;;5022330;28;20183;-73
2022/10/03 04:02:37;;;;;;;8.57;2.40;;;;;;;;;;5022027;28;20202;-73
2022/10/03 04:05:17;;;;;;;4.20;2.07;;;;;;;;;;5020307;28;20772;-73
2022/10/03 04:08:01;;;;;;;8.23;2.23;;;;;;;;;;5004796;28;20554;-73
2022/10/03 04:10:29;;;;;;;7.10;2.87;;;;;;;;;;5027878;28;20186;-72
2022/10/03 04:12:58;;;;;;;8.50;4.37;;;;;;;;;;5008747;28;20230;-71
2022/10/03 04:15:23;;;;;;;7.60;3.03;;;;;;;;;;5025141;28;20187;-71
2022/10/03 04:20:43;;;;;;;5.80;2.30;;;;;;;;;;5020042;28;20265;-71
2022/10/03 04:23:08;;;;;;;6.10;2.57;;;;;;;;;;5011865;28;20206;-72
2022/10/03 04:25:36;;;;;;;5.00;2.63;;;;;;;;;;5014527;28;20228;-73
2022/10/03 04:28:12;;;;;;;4.97;2.40;;;;;;;;;;5005581;28;20201;-71
2022/10/03 04:30:43;;;;;;;4.17;2.77;;;;;;;;;;5015440;28;21336;-71
2022/10/03 04:33:26;;;;;;;3.23;2.40;;;;;;;;;;5020044;28;20194;-73
2022/10/03 04:36:13;;;;;;;8.67;2.10;;;;;;;;;;5017303;28;20202;-72
2022/10/03 04:38:44;;;;;;;4.67;2.00;;;;;;;;;;5023971;28;20560;-71
2022/10/03 04:41:22;;;;;;;3.43;1.90;;;;;;;;;;5026086;28;20182;-73
2022/10/03 04:43:47;;;;;;;3.17;1.80;;;;;;;;;;5019019;28;20339;-72
2022/10/03 04:46:12;;;;;;;3.53;1.60;;;;;;;;;;5010546;28;20269;-71
2022/10/03 04:48:37;;;;;;;4.20;1.77;;;;;;;;;;5024602;28;20189;-73
2022/10/03 04:51:03;;;;;;;5.50;1.97;;;;;;;;;;5020919;28;20586;-72
2022/10/03 04:53:28;;;;;;;6.43;1.77;;;;;;;;;;5026965;28;20202;-72
2022/10/03 04:56:28;;;;;;;4.87;2.67;;;;;;;;;;5014143;28;20186;-72
2022/10/03 04:58:58;;;;;;;4.13;2.10;;;;;;;;;;4920344;29;20213;-73
2022/10/03 05:01:26;;;;;;;3.30;1.90;;;;;;;;;;5004196;28;20202;-72
2022/10/03 05:03:52;;;;;;;2.73;1.90;;;;;;;;;;5028151;28;20194;-72
2022/10/03 05:06:35;;;;;;;4.37;1.60;;;;;;;;;;5023652;28;20182;-71
2022/10/03 05:09:15;;;;;;;4.23;2.20;;;;;;;;;;5025007;28;20178;-72
2022/10/03 05:12:06;;;;;;;3.50;1.90;;;;;;;;;;5022860;28;20185;-72
2022/10/03 05:14:41;;;;;;;11.90;2.80;;;;;;;;;;5018596;28;20664;-72
2022/10/03 05:17:23;;;;;;;4.63;2.20;;;;;;;;;;5028057;28;20219;-72
2022/10/03 05:19:59;;;;;;;3.77;2.27;;;;;;;;;;5023672;28;20186;-72
2022/10/03 05:22:36;;;;;;;4.53;2.10;;;;;;;;;;5025831;28;20206;-72
2022/10/03 05:25:10;;;;;;;4.93;2.03;;;;;;;;;;5027315;28;20196;-71
2022/10/03 05:27:41;;;;;;;6.17;2.00;;;;;;;;;;5025133;28;20182;-72
2022/10/03 05:30:08;;;;;;;3.87;2.07;;;;;;;;;;5007954;28;20212;-72
2022/10/03 05:32:33;;;;;;;6.40;2.80;;;;;;;;;;5027627;28;20655;-72
2022/10/03 05:34:58;;;;;;;3.57;2.20;;;;;;;;;;5020668;28;20214;-72
2022/10/03 05:37:42;;;;;;;3.10;2.27;;;;;;;;;;5027837;28;20257;-72
2022/10/03 05:40:23;;;;;;;4.00;2.07;;;;;;;;;;5022876;28;20182;-73
2022/10/03 05:42:48;;;;;;;4.50;2.10;;;;;;;;;;5024539;28;20213;-71
2022/10/03 05:45:23;;;;;;;9.13;2.97;;;;;;;;;;5018925;28;20194;-72
2022/10/03 05:47:58;;;;;;;5.73;2.53;;;;;;;;;;5023247;28;20205;-71
2022/10/03 05:50:37;;;;;;;6.13;1.93;;;;;;;;;;5020214;28;20221;-72
2022/10/03 05:53:11;;;;;;;4.60;2.40;;;;;;;;;;5026324;28;20255;-71
2022/10/03 05:55:44;;;;;;;5.53;2.50;;;;;;;;;;5024406;28;20190;-71
2022/10/03 05:58:19;;;;;;;7.37;2.43;;;;;;;;;;5026858;28;20229;-71
2022/10/03 06:01:17;;;;;;;3.73;2.30;;;;;;;;;;5004564;28;20170;-71
2022/10/03 06:03:42;;;;;;;4.60;2.50;;;;;;;;;;4975410;28;20218;-72
2022/10/03 06:06:27;;;;;;;4.47;2.40;;;;;;;;;;5020678;28;20244;-72
2022/10/03 06:09:08;;;;;;;3.67;2.10;;;;;;;;;;5020931;28;20752;-72
2022/10/03 06:11:51;;;;;;;5.90;2.60;;;;;;;;;;5017840;28;20177;-74
2022/10/03 06:14:16;;;;;;;4.87;2.00;;;;;;;;;;5019715;28;20569;-74
2022/10/03 06:16:50;;;;;;;5.47;2.60;;;;;;;;;;5015086;28;20201;-73
2022/10/03 06:19:34;;;;;;;4.67;2.37;;;;;;;;;;5003298;28;20267;-73
2022/10/03 06:22:05;;;;;;;5.67;2.70;;;;;;;;;;5018503;28;20499;-73
2022/10/03 06:24:54;;;;;;;8.43;3.00;;;;;;;;;;5022320;28;20182;-74
2022/10/03 06:27:22;;;;;;;9.13;3.77;;;;;;;;;;5014959;28;20179;-73
2022/10/03 06:30:10;;;;;;;3.50;2.90;;;;;;;;;;5020075;28;20414;-73
2022/10/03 06:32:35;;;;;;;5.97;3.13;;;;;;;;;;5013046;28;20249;-73
2022/10/03 06:35:23;;;;;;;6.00;3.20;;;;;;;;;;5007675;28;20675;-73
2022/10/03 06:38:06;;;;;;;3.73;3.07;;;;;;;;;;5019890;28;20195;-73
2022/10/03 06:40:52;;;;;;;5.93;3.57;;;;;;;;;;5021442;28;20171;-73
2022/10/03 06:43:40;;;;;;;3.70;3.30;;;;;;;;;;5022424;28;20209;-73
2022/10/03 06:46:24;;;;;;;4.20;2.73;;;;;;;;;;5012966;28;20201;-75
2022/10/03 06:49:08;;;;;;;4.20;2.70;;;;;;;;;;5024332;28;20175;-73
2022/10/03 06:51:36;;;;;;;6.00;3.63;;;;;;;;;;5020063;28;20198;-73
2022/10/03 06:54:20;;;;;;;5.13;2.97;;;;;;;;;;5025199;28;20245;-72
2022/10/03 06:56:56;;;;;;;4.70;2.63;;;;;;;;;;5023205;28;20186;-72
2022/10/03 06:59:30;;;;;;;4.67;3.57;;;;;;;;;;5021773;28;20291;-74
2022/10/03 07:02:15;;;;;;;6.53;3.40;;;;;;;;;;5016995;28;20182;-73
2022/10/03 07:04:46;;;;;;;4.67;3.00;;;;;;;;;;5019169;28;20202;-73
2022/10/03 07:07:31;;;;;;;4.43;3.13;;;;;;;;;;5024193;28;20174;-73
2022/10/03 07:10:12;;;;;;;5.63;3.33;;;;;;;;;;5005042;28;20756;-75
2022/10/03 07:12:42;;;;;;;5.90;2.80;;;;;;;;;;5021425;28;20285;-74
2022/10/03 07:15:12;;;;;;;6.03;3.13;;;;;;;;;;5021059;28;20214;-73
2022/10/03 07:17:42;;;;;;;7.47;3.93;;;;;;;;;;5009393;28;20198;-71
2022/10/03 07:20:18;;;;;;;6.93;3.87;;;;;;;;;;5019787;28;20195;-74
2022/10/03 07:23:05;;;;;;;9.30;3.57;;;;;;;;;;5011810;28;20281;-73
2022/10/03 07:25:38;;;;;;;7.47;3.20;;;;;;;;;;5018992;28;20528;-73
2022/10/03 07:28:22;;;;;;;7.20;3.03;;;;;;;;;;5018356;28;20178;-73
2022/10/03 07:30:47;;;;;;;6.93;4.30;;;;;;;;;;5020084;28;20562;-73
2022/10/03 07:33:34;;;;;;;5.27;3.50;;;;;;;;;;5009333;28;20208;-72
2022/10/03 07:39:05;;;;;;;6.55;3.70;;;;;;;;;;5022686;28;20260;-73
2022/10/03 07:41:42;;;;;;;6.35;3.22;;;;;;;;;;5027885;28;20722;-73
2022/10/03 07:44:19;;;;;;;7.03;3.40;;;;;;;;;;5024942;28;20267;-73
2022/10/03 07:46:44;;;;;;;7.10;3.50;;;;;;;;;;5021226;28;20178;-73
2022/10/03 07:49:28;;;;;;;7.30;3.27;;;;;;;;;;5022617;28;20189;-73
2022/10/03 07:51:53;;;;;;;4.57;3.38;;;;;;;;;;5011379;28;20427;-74
2022/10/03 07:54:18;;;;;;;6.03;4.20;;;;;;;;;;5026788;28;20703;-72
2022/10/03 07:56:56;;;;;;;7.60;3.20;;;;;;;;;;5019996;28;20619;-73
2022/10/03 07:59:34;;;;;;;10.77;4.38;;;;;;;;;;5025069;28;20542;-72
2022/10/03 08:02:14;;;;;;;8.23;3.25;;;;;;;;;;5017833;28;20754;-72
2022/10/03 08:04:45;;;;;;;7.82;3.08;;;;;;;;;;5020221;28;20261;-72
2022/10/03 08:07:22;;;;;;;8.68;3.95;;;;;;;;;;5018812;28;20171;-72
2022/10/03 08:09:57;;;;;;;8.35;2.83;;;;;;;;;;5018038;28;20171;-72
2022/10/03 08:12:50;;;;;;;6.40;2.67;;;;;;;;;;5018122;28;20767;-72
2022/10/03 08:15:25;;;;;;;8.05;3.20;;;;;;;;;;5023926;28;20659;-72
2022/10/03 08:18:05;;;;;;;6.97;3.00;;;;;;;;;;5020745;28;20189;-72
2022/10/03 08:20:42;;;;;;;3.80;2.40;;;;;;;;;;5022595;28;20288;-72
2022/10/03 08:23:10;;;;;;;4.05;2.47;;;;;;;;;;5027770;28;20193;-70
2022/10/03 08:25:44;;;;;;;6.18;2.42;;;;;;;;;;5007802;28;20179;-72
2022/10/03 08:28:28;;;;;;;3.60;2.25;;;;;;;;;;5019744;28;20183;-74
2022/10/03 08:30:56;;;;;;;4.30;2.15;;;;;;;;;;5023187;28;20618;-73
2022/10/03 08:33:48;;;;;;;9.77;2.63;;;;;;;;;;5019903;28;22029;-74
2022/10/03 08:36:41;;;;;;;5.43;2.80;;;;;;;;;;5023822;28;20198;-74
2022/10/03 08:39:09;;;;;;;5.47;2.97;;;;;;;;;;5023078;28;20288;-72
2022/10/03 08:41:43;;;;;;;5.28;2.47;;;;;;;;;;5021779;28;20676;-74
2022/10/03 08:44:11;;;;;;;6.00;2.42;;;;;;;;;;5023637;28;20229;-73
2022/10/03 08:46:42;;;;;;;7.30;2.92;;;;;;;;;;5022658;28;20181;-72
2022/10/03 08:49:23;;;;;;;5.78;2.78;;;;;;;;;;5022681;28;20175;-72
2022/10/03 08:51:51;;;;;;;6.32;2.90;;;;;;;;;;5023196;28;20570;-71
2022/10/03 08:54:34;;;;;;;6.75;2.45;;;;;;;;;;5025660;28;20190;-72
2022/10/03 08:56:59;;;;;;;7.63;2.75;;;;;;;;;;5024275;28;20201;-72
2022/10/03 08:59:40;;;;;;;6.87;2.20;;;;;;;;;;5029751;28;20655;-70
2022/10/03 09:02:24;;;;;;;6.53;2.13;;;;;;;;;;5023963;28;20944;-72
2022/10/03 09:04:55;;;;;;;5.50;2.47;;;;;;;;;;5022451;28;20174;-72
2022/10/03 09:07:32;;;;;;;6.30;2.70;;;;;;;;;;5020586;28;20185;-72
2022/10/03 09:10:18;;;;;;;5.30;2.80;;;;;;;;;;5022714;28;20171;-72
2022/10/03 09:13:02;;;;;;;7.05;2.50;;;;;;;;;;5023961;28;20289;-72
2022/10/03 09:15:40;;;;;;;5.03;2.50;;;;;;;;;;5021728;28;20193;-71
2022/10/03 09:18:26;;;;;;;5.05;2.50;;;;;;;;;;5009663;28;20322;-70
2022/10/03 09:21:09;;;;;;;7.88;3.28;;;;;;;;;;4981498;28;20186;-71
2022/10/03 09:24:01;;;;;;;6.00;2.50;;;;;;;;;;5013419;28;20672;-72
2022/10/03 09:26:45;;;;;;;3.80;2.33;;;;;;;;;;5018736;28;20191;-71
2022/10/03 09:29:29;;;;;;;4.68;2.25;;;;;;;;;;5018046;28;20171;-70
2022/10/03 09:32:29;;;;;;;11.98;4.00;;;;;;;;;;5018955;28;20572;-73
2022/10/03 09:34:55;;;;;;;5.72;2.08;;;;;;;;;;4938080;29;20178;-70
2022/10/03 09:37:43;;;;;;;4.17;1.90;;;;;;;;;;5002087;28;20256;-71
2022/10/03 09:40:30;;;;;;;3.78;1.80;;;;;;;;;;5020681;28;20523;-70
2022/10/03 09:43:14;;;;;;;9.15;2.05;;;;;;;;;;5023561;28;20194;-70
2022/10/03 09:45:51;;;;;;;7.18;2.10;;;;;;;;;;5025776;28;20559;-70
2022/10/03 09:48:25;;;;;;;8.65;2.55;;;;;;;;;;5027604;28;20185;-70
2022/10/03 09:50:56;;;;;;;4.03;1.65;;;;;;;;;;5029850;28;20261;-70
2022/10/03 09:53:31;;;;;;;3.30;1.58;;;;;;;;;;5020088;28;20210;-70
2022/10/03 09:56:15;;;;;;;3.80;1.38;;;;;;;;;;5022517;28;20186;-71
2022/10/03 09:58:46;;;;;;;3.17;1.30;;;;;;;;;;5016721;28;20233;-71
2022/10/03 10:01:14;;;;;;;4.93;1.42;;;;;;;;;;5006686;28;20179;-71
2022/10/03 10:03:45;;;;;;;4.88;1.40;;;;;;;;;;5019873;28;20190;-70
2022/10/03 10:06:10;;;;;;;4.32;1.33;;;;;;;;;;5023041;28;20179;-71
2022/10/03 10:08:39;;;;;;;9.07;1.80;;;;;;;;;;5024400;28;20186;-71
2022/10/03 10:11:36;;;;;;;5.55;1.40;;;;;;;;;;5023733;28;20434;-70
2022/10/03 10:14:01;;;;;;;7.05;1.55;;;;;;;;;;4980912;28;20217;-70
2022/10/03 10:16:29;;;;;;;3.10;1.45;;;;;;;;;;5025771;28;20265;-70
2022/10/03 10:19:10;;;;;;;5.85;1.25;;;;;;;;;;5027248;28;20309;-70
2022/10/03 10:21:54;;;;;;;6.78;2.33;;;;;;;;;;5008159;28;20458;-70
2022/10/03 10:24:28;;;;;;;2.72;1.27;;;;;;;;;;5023379;28;20193;-70
2022/10/03 10:27:12;;;;;;;4.07;0.98;;;;;;;;;;5027826;28;20177;-70
2022/10/03 10:29:56;;;;;;;7.22;1.23;;;;;;;;;;5024383;28;20178;-70
2022/10/03 10:32:31;;;;;;;2.28;0.93;;;;;;;;;;5025783;28;20206;-70
2022/10/03 10:35:14;;;;;;;2.03;0.88;;;;;;;;;;5016287;28;20186;-70
2022/10/03 10:37:40;;;;;;;3.92;0.82;;;;;;;;;;5027430;28;20193;-70
2022/10/03 10:40:20;;;;;;;4.82;0.88;;;;;;;;;;5021993;28;20182;-71
2022/10/03 10:43:05;;;;;;;2.80;1.50;;;;;;;;;;5006287;28;20271;-70
2022/10/03 10:45:38;;;;;;;3.47;0.95;;;;;;;;;;5021364;28;20178;-70
2022/10/03 10:48:12;;;;;;;4.90;1.00;;;;;;;;;;5027956;28;20182;-70
2022/10/03 10:50:56;;;;;;;3.95;1.40;;;;;;;;;;5027040;28;20178;-71
2022/10/03 10:53:39;;;;;;;5.45;1.10;;;;;;;;;;5022167;28;20209;-71
2022/10/03 10:56:20;;;;;;;2.88;1.20;;;;;;;;;;5015998;28;20182;-71
2022/10/03 10:58:56;;;;;;;5.00;1.20;;;;;;;;;;5022236;28;20217;-70
2022/10/03 11:01:45;;;;;;;7.05;1.13;;;;;;;;;;5019854;28;20679;-70
2022/10/03 11:04:13;;;;;;;3.78;1.17;;;;;;;;;;5014401;28;20253;-70
2022/10/03 11:06:40;;;;;;;5.60;1.30;;;;;;;;;;5008538;28;20182;-70
2022/10/03 11:09:11;;;;;;;4.43;1.17;;;;;;;;;;5020834;28;20225;-71
2022/10/03 11:11:42;;;;;;;5.38;1.60;;;;;;;;;;5021748;28;20265;-70
2022/10/03 11:14:28;;;;;;;5.90;1.35;;;;;;;;;;5020078;28;20694;-70
2022/10/03 11:17:12;;;;;;;5.50;1.35;;;;;;;;;;5008358;28;20678;-71
2022/10/03 11:19:56;;;;;;;9.10;1.42;;;;;;;;;;5022978;28;20190;-71
2022/10/03 11:22:40;;;;;;;8.43;1.25;;;;;;;;;;5025645;28;20202;-70
2022/10/03 11:25:25;;;;;;;6.35;1.10;;;;;;;;;;5023777;28;20190;-71
2022/10/03 11:28:08;;;;;;;3.35;1.23;;;;;;;;;;5028383;28;20174;-70
2022/10/03 11:30:39;;;;;;;4.53;1.40;;;;;;;;;;5010977;28;20209;-71
2022/10/03 11:33:14;;;;;;;2.80;0.93;;;;;;;;;;5023672;28;20639;-71
2022/10/03 11:35:48;;;;;;;5.75;1.10;;;;;;;;;;5024443;28;20177;-71
2022/10/03 11:38:13;;;;;;;4.57;1.30;;;;;;;;;;5018585;28;20248;-70
2022/10/03 11:40:38;;;;;;;3.90;1.13;;;;;;;;;;5007818;28;20181;-70
2022/10/03 11:43:22;;;;;;;5.53;1.00;;;;;;;;;;5019910;28;20451;-71
2022/10/03 11:45:54;;;;;;;5.90;1.10;;;;;;;;;;5022053;28;20553;-70
2022/10/03 11:48:34;;;;;;;4.63;1.23;;;;;;;;;;5018560;28;20182;-71
2022/10/03 11:51:07;;;;;;;5.22;1.40;;;;;;;;;;5015969;28;20182;-70
2022/10/03 11:53:36;;;;;;;3.67;1.20;;;;;;;;;;5022114;28;20252;-71
2022/10/03 11:56:02;;;;;;;7.97;2.00;;;;;;;;;;5017333;28;20174;-70
2022/10/03 11:58:33;;;;;;;7.80;0.93;;;;;;;;;;4997831;28;20197;-70
2022/10/03 12:01:05;;;;;;;4.47;1.10;;;;;;;;;;5006076;28;20716;-70
2022/10/03 12:03:34;;;;;;;4.40;1.13;;;;;;;;;;5025168;28;21662;-70
2022/10/03 12:09:06;;;;;;;5.70;1.92;;;;;;;;;;5024956;28;20712;-70
2022/10/03 12:11:34;;;;;;;5.38;1.08;;;;;;;;;;5022044;28;20182;-70
2022/10/03 12:14:08;;;;;;;4.45;1.23;;;;;;;;;;5025692;28;20231;-71
2022/10/03 12:16:48;;;;;;;3.00;1.30;;;;;;;;;;5013948;28;20186;-71
2022/10/03 12:19:21;;;;;;;4.40;1.25;;;;;;;;;;5015688;28;20248;-70
2022/10/03 12:21:55;;;;;;;5.78;1.42;;;;;;;;;;5022459;28;20183;-70
2022/10/03 12:24:25;;;;;;;7.18;1.80;;;;;;;;;;5024910;28;20185;-70
2022/10/03 12:26:59;;;;;;;4.43;1.48;;;;;;;;;;5024217;28;20174;-72
2022/10/03 12:29:28;;;;;;;5.63;1.77;;;;;;;;;;5024843;28;20179;-71
2022/10/03 12:32:15;;;;;;;4.10;1.70;;;;;;;;;;5024469;28;20301;-72
2022/10/03 12:34:40;;;;;;;5.00;1.20;;;;;;;;;;5021327;28;20183;-71
2022/10/03 12:37:21;;;;;;;4.17;1.20;;;;;;;;;;5018852;28;20175;-71
2022/10/03 12:39:49;;;;;;;7.43;1.88;;;;;;;;;;5021582;28;20608;-71
2022/10/03 12:42:33;;;;;;;4.13;1.48;;;;;;;;;;5020927;28;20734;-71
2022/10/03 12:45:02;;;;;;;6.60;1.90;;;;;;;;;;5004732;28;20186;-71
2022/10/03 12:47:39;;;;;;;6.50;2.22;;;;;;;;;;5022523;28;20179;-71
2022/10/03 12:50:13;;;;;;;4.93;1.30;;;;;;;;;;5024798;28;20671;-71
2022/10/03 12:52:45;;;;;;;7.15;1.30;;;;;;;;;;5021048;28;20198;-71
2022/10/03 12:55:18;;;;;;;5.05;1.48;;;;;;;;;;5006921;28;20174;-71
2022/10/03 12:57:46;;;;;;;6.00;2.50;;;;;;;;;;5020225;28;20224;-71
2022/10/03 13:00:20;;;;;;;6.78;1.50;;;;;;;;;;5024913;28;20235;-71
2022/10/03 13:02:51;;;;;;;8.75;1.55;;;;;;;;;;5022368;28;20198;-71
2022/10/03 13:05:17;;;;;;;4.18;1.30;;;;;;;;;;5025439;28;20182;-71
2022/10/03 13:07:55;;;;;;;4.80;1.20;;;;;;;;;;5021377;28;20672;-71
2022/10/03 13:10:36;;;;;;;5.10;1.70;;;;;;;;;;5028260;28;20205;-71
2022/10/03 13:13:16;;;;;;;9.60;1.83;;;;;;;;;;5010458;28;20204;-71
2022/10/03 13:16:03;;;;;;;6.47;1.65;;;;;;;;;;5018915;28;20166;-71
2022/10/03 13:18:46;;;;;;;4.22;1.23;;;;;;;;;;5025317;28;20679;-72
2022/10/03 13:21:40;;;;;;;6.47;1.55;;;;;;;;;;4996156;28;20574;-71
2022/10/03 13:24:09;;;;;;;8.00;1.80;;;;;;;;;;4997467;28;20757;-71
2022/10/03 13:26:38;;;;;;;4.70;1.75;;;;;;;;;;5029071;28;20178;-71
2022/10/03 13:29:10;;;;;;;6.78;1.50;;;;;;;;;;5024612;28;20651;-71
2022/10/03 13:31:37;;;;;;;5.13;1.52;;;;;;;;;;5028001;28;20706;-71
2022/10/03 13:34:09;;;;;;;6.60;1.30;;;;;;;;;;5008826;28;20193;-71
2022/10/03 13:36:40;;;;;;;3.67;1.10;;;;;;;;;;5025755;28;20182;-71
2022/10/03 13:39:24;;;;;;;6.25;1.27;;;;;;;;;;5025324;28;20206;-71
2022/10/03 13:42:09;;;;;;;6.22;1.35;;;;;;;;;;5017986;28;20225;-71
2022/10/03 13:44:39;;;;;;;5.78;1.25;;;;;;;;;;5012257;28;20229;-71
2022/10/03 13:47:24;;;;;;;2.50;1.00;;;;;;;;;;5021686;28;20344;-71
2022/10/03 13:49:50;;;;;;;4.53;1.42;;;;;;;;;;5026648;28;20201;-71
2022/10/03 13:52:20;;;;;;;5.55;1.30;;;;;;;;;;5025777;28;20209;-71
2022/10/03 13:54:45;;;;;;;6.88;1.95;;;;;;;;;;5010267;28;20178;-72
2022/10/03 13:57:23;;;;;;;4.10;1.33;;;;;;;;;;5024433;28;20261;-71
2022/10/03 14:00:07;;;;;;;2.83;1.17;;;;;;;;;;5024092;28;20459;-71
2022/10/03 14:02:40;;;;;;;12.23;2.85;;;;;;;;;;5022220;28;20206;-71
2022/10/03 14:05:25;;;;;;;4.20;1.10;;;;;;;;;;5025836;28;20674;-71
2022/10/03 14:08:08;;;;;;;3.17;1.38;;;;;;;;;;5020683;28;20181;-71
2022/10/03 14:10:43;;;;;;;6.28;1.40;;;;;;;;;;5026816;28;20718;-71
2022/10/03 14:13:19;;;;;;;3.75;1.27;;;;;;;;;;5023841;28;20198;-72
2022/10/03 14:15:47;;;;;;;6.25;1.10;;;;;;;;;;5023599;28;20173;-72
2022/10/03 14:18:32;;;;;;;3.50;1.60;;;;;;;;;;5007501;28;20209;-72
2022/10/03 14:21:11;;;;;;;3.20;1.08;;;;;;;;;;5005808;28;20549;-72
2022/10/03 14:23:41;;;;;;;4.78;1.33;;;;;;;;;;5027389;28;20927;-71
2022/10/03 14:26:12;;;;;;;5.38;1.38;;;;;;;;;;5019704;28;20645;-72
2022/10/03 14:28:43;;;;;;;7.22;1.45;;;;;;;;;;5022532;28;20259;-72
2022/10/03 14:31:15;;;;;;;5.38;1.45;;;;;;;;;;5026716;28;20174;-72
2022/10/03 14:33:43;;;;;;;5.88;1.50;;;;;;;;;;5026201;28;20202;-72
2022/10/03 14:36:23;;;;;;;5.07;1.10;;;;;;;;;;5027831;28;20186;-72
2022/10/03 14:38:59;;;;;;;5.07;1.30;;;;;;;;;;5016934;28;20230;-72
2022/10/03 14:41:30;;;;;;;5.35;1.13;;;;;;;;;;4993339;28;20187;-72
2022/10/03 14:43:58;;;;;;;4.25;1.23;;;;;;;;;;5001434;28;20251;-72
2022/10/03 14:46:26;;;;;;;5.43;1.05;;;;;;;;;;5021425;28;20182;-72
2022/10/03 14:48:57;;;;;;;3.03;1.10;;;;;;;;;;5021113;28;20182;-72
2022/10/03 14:51:29;;;;;;;4.68;1.70;;;;;;;;;;5022128;28;20707;-71
2022/10/03 14:54:20;;;;;;;2.25;1.20;;;;;;;;;;5029211;28;20703;-72
2022/10/03 14:56:46;;;;;;;4.13;1.80;;;;;;;;;;5018764;28;20241;-72
2022/10/03 14:59:16;;;;;;;4.22;1.20;;;;;;;;;;5018238;28;20234;-72
2022/10/03 15:01:58;;;;;;;3.05;1.13;;;;;;;;;;5022904;28;20222;-72
2022/10/03 15:04:30;;;;;;;4.53;1.38;;;;;;;;;;5018732;28;20604;-72
2022/10/03 15:06:57;;;;;;;7.07;1.90;;;;;;;;;;5023891;28;20649;-72
2022/10/03 15:09:37;;;;;;;7.60;2.25;;;;;;;;;;5024680;28;20185;-72
2022/10/03 15:12:03;;;;;;;5.93;1.55;;;;;;;;;;5023809;28;20183;-72
2022/10/03 15:14:29;;;;;;;5.97;1.30;;;;;;;;;;5025758;28;20186;-72
2022/10/03 15:16:56;;;;;;;9.10;2.38;;;;;;;;;;5024682;28;20574;-70
2022/10/03 15:19:43;;;;;;;5.47;1.52;;;;;;;;;;5010582;28;20198;-70
2022/10/03 15:22:25;;;;;;;3.03;1.52;;;;;;;;;;5023188;28;20648;-70
2022/10/03 15:24:52;;;;;;;6.30;2.00;;;;;;;;;;5021296;28;20308;-71
2022/10/03 15:27:19;;;;;;;5.28;1.77;;;;;;;;;;5023646;28;20170;-71
2022/10/03 15:29:48;;;;;;;6.03;2.42;;;;;;;;;;5022392;28;20185;-70
2022/10/03 15:32:42;;;;;;;4.15;1.75;;;;;;;;;;5024847;28;20201;-70
2022/10/03 15:35:15;;;;;;;4.53;1.42;;;;;;;;;;4992736;28;20195;-70
2022/10/03 15:37:41;;;;;;;3.95;1.80;;;;;;;;;;5022793;28;20253;-70
2022/10/03 15:40:19;;;;;;;7.60;1.90;;;;;;;;;;5018306;28;20266;-70
2022/10/03 15:42:47;;;;;;;6.82;1.60;;;;;;;;;;5021014;28;20201;-70
2022/10/03 15:45:17;;;;;;;4.78;1.98;;;;;;;;;;5019481;28;20522;-70
2022/10/03 15:47:43;;;;;;;5.05;1.83;;;;;;;;;;5020137;28;20228;-70